Time;durP1;ratioP1;P1;durP2;ratioP2;P2;SDS_P1;SDS_P2;PMS_P1;PMS_P2;Temp;Humidity;BMP_temperature;BMP_pressure;BME280_temperature;BME280_humidity;BME280_pressure;Samples;Min_cycle;Max_cycle;Signal;HPM_P1;HPM_P2
2022/08/13 00:00:31;;;;;;;1.23;1.23;;;;;;;;;;5144860;27;20194;-69
2022/08/13 00:02:58;;;;;;;2.30;1.20;;;;;;;;;;5144893;27;20195;-69
2022/08/13 00:05:24;;;;;;;1.35;1.13;;;;;;;;;;5144641;27;20221;-69
2022/08/13 00:07:51;;;;;;;1.10;1.10;;;;;;;;;;5144166;27;20194;-69
2022/08/13 00:10:21;;;;;;;3.28;1.10;;;;;;;;;;5144987;27;20194;-69
2022/08/13 00:13:03;;;;;;;1.13;1.13;;;;;;;;;;5144735;27;20247;-69
2022/08/13 00:15:32;;;;;;;2.30;1.35;;;;;;;;;;5144683;27;20238;-69
2022/08/13 00:18:02;;;;;;;1.02;1.02;;;;;;;;;;5144128;27;20200;-69
2022/08/13 00:20:29;;;;;;;1.02;1.02;;;;;;;;;;5144466;27;20218;-69
2022/08/13 00:22:56;;;;;;;1.08;1.08;;;;;;;;;;5144260;27;20243;-69
2022/08/13 00:25:23;;;;;;;1.10;1.10;;;;;;;;;;5144224;27;20206;-69
2022/08/13 00:27:56;;;;;;;1.10;1.10;;;;;;;;;;5144238;27;20210;-69
2022/08/13 00:30:24;;;;;;;1.48;1.20;;;;;;;;;;5144137;27;20258;-69
2022/08/13 00:32:52;;;;;;;1.45;1.45;;;;;;;;;;5144072;27;20587;-69
2022/08/13 00:35:18;;;;;;;4.65;1.40;;;;;;;;;;5144423;27;20266;-69
2022/08/13 00:37:45;;;;;;;1.50;1.40;;;;;;;;;;5143890;27;20233;-69
2022/08/13 00:40:12;;;;;;;1.50;1.40;;;;;;;;;;5144089;27;20273;-69
2022/08/13 00:42:38;;;;;;;1.95;1.65;;;;;;;;;;5144014;27;20195;-69
2022/08/13 00:45:05;;;;;;;1.17;1.17;;;;;;;;;;5143763;27;20218;-69
2022/08/13 00:50:17;;;;;;;1.30;1.30;;;;;;;;;;5143956;27;20416;-69
2022/08/13 00:52:43;;;;;;;1.85;0.98;;;;;;;;;;5143921;27;20238;-69
2022/08/13 00:55:13;;;;;;;1.42;1.30;;;;;;;;;;5143714;27;20203;-69
2022/08/13 00:57:39;;;;;;;1.80;1.25;;;;;;;;;;5143575;27;20411;-69
2022/08/13 01:00:11;;;;;;;1.92;1.60;;;;;;;;;;5143830;27;20198;-69
2022/08/13 01:02:37;;;;;;;1.70;1.23;;;;;;;;;;5143864;27;20198;-69
2022/08/13 01:05:04;;;;;;;1.58;1.55;;;;;;;;;;5143811;27;20226;-69
2022/08/13 01:07:31;;;;;;;1.88;1.45;;;;;;;;;;5143489;27;20506;-69
2022/08/13 01:09:58;;;;;;;1.20;1.10;;;;;;;;;;5142922;27;20199;-69
2022/08/13 01:12:24;;;;;;;3.17;1.50;;;;;;;;;;5143483;27;20202;-69
2022/08/13 01:14:51;;;;;;;1.23;1.10;;;;;;;;;;5143722;27;20199;-69
2022/08/13 01:17:22;;;;;;;1.52;1.48;;;;;;;;;;5143503;27;20224;-69
2022/08/13 01:19:49;;;;;;;1.85;1.40;;;;;;;;;;5143881;27;20195;-69
2022/08/13 01:22:17;;;;;;;1.23;1.23;;;;;;;;;;5143599;27;20206;-69
2022/08/13 01:24:43;;;;;;;1.65;1.55;;;;;;;;;;5143332;28;20214;-69
2022/08/13 01:27:10;;;;;;;2.65;1.55;;;;;;;;;;5143016;27;20195;-69
2022/08/13 01:29:37;;;;;;;2.03;1.42;;;;;;;;;;5143599;28;20502;-69
2022/08/13 01:32:05;;;;;;;1.30;1.30;;;;;;;;;;5143520;28;20201;-69
2022/08/13 01:34:32;;;;;;;1.50;1.40;;;;;;;;;;5143371;28;20229;-69
2022/08/13 01:36:58;;;;;;;1.50;1.50;;;;;;;;;;5143241;28;20194;-69
2022/08/13 01:39:26;;;;;;;4.82;1.40;;;;;;;;;;5143239;28;20194;-69
2022/08/13 01:41:53;;;;;;;1.30;1.30;;;;;;;;;;5143431;28;20239;-69
2022/08/13 01:44:20;;;;;;;1.05;1.02;;;;;;;;;;5143259;28;20222;-69
2022/08/13 01:52:16;;;;;;;1.45;1.40;;;;;;;;;;5142843;28;20189;-69
2022/08/13 01:54:44;;;;;;;3.80;1.40;;;;;;;;;;5143143;27;20198;-69
2022/08/13 01:57:11;;;;;;;2.35;1.48;;;;;;;;;;5142977;27;20417;-69
2022/08/13 01:59:38;;;;;;;5.32;1.50;;;;;;;;;;5142923;28;20494;-69
2022/08/13 02:02:05;;;;;;;1.20;1.20;;;;;;;;;;5143435;28;20233;-69
2022/08/13 02:04:33;;;;;;;1.20;1.20;;;;;;;;;;5142880;28;20214;-69
2022/08/13 02:07:00;;;;;;;1.52;1.42;;;;;;;;;;5142858;27;20194;-69
2022/08/13 02:09:27;;;;;;;2.35;1.38;;;;;;;;;;5143070;28;20222;-69
2022/08/13 02:11:55;;;;;;;1.65;1.25;;;;;;;;;;5142815;27;20239;-69
2022/08/13 02:14:22;;;;;;;3.83;1.52;;;;;;;;;;5143024;28;20263;-69
2022/08/13 02:16:48;;;;;;;1.52;1.52;;;;;;;;;;5142943;28;20195;-69
2022/08/13 02:19:14;;;;;;;1.85;1.75;;;;;;;;;;5142972;28;20239;-69
2022/08/13 02:21:44;;;;;;;1.40;1.40;;;;;;;;;;5146373;27;20239;-69
2022/08/13 02:24:13;;;;;;;1.40;1.40;;;;;;;;;;5146706;27;20218;-69
2022/08/13 02:26:40;;;;;;;1.50;1.40;;;;;;;;;;5146356;27;20198;-69
2022/08/13 02:29:09;;;;;;;1.48;1.48;;;;;;;;;;5146756;27;20195;-69
2022/08/13 02:31:35;;;;;;;4.13;1.50;;;;;;;;;;5146688;27;20306;-68
2022/08/13 02:34:02;;;;;;;1.40;1.40;;;;;;;;;;5146557;27;20370;-68
2022/08/13 02:36:30;;;;;;;1.45;1.33;;;;;;;;;;5146279;27;20241;-69
2022/08/13 02:38:56;;;;;;;1.10;1.10;;;;;;;;;;5146430;27;20385;-69
2022/08/13 02:41:42;;;;;;;1.17;1.17;;;;;;;;;;5146362;27;20424;-69
2022/08/13 02:44:11;;;;;;;1.70;1.60;;;;;;;;;;5146723;27;20226;-69
2022/08/13 02:46:37;;;;;;;1.50;1.50;;;;;;;;;;5146132;27;20439;-69
2022/08/13 02:49:04;;;;;;;1.55;1.55;;;;;;;;;;5146181;27;20194;-69
2022/08/13 02:51:31;;;;;;;1.60;1.50;;;;;;;;;;5146176;27;20231;-69
2022/08/13 02:53:59;;;;;;;1.10;1.10;;;;;;;;;;5146175;27;20248;-69
2022/08/13 02:56:26;;;;;;;1.55;1.42;;;;;;;;;;5145975;27;20198;-69
2022/08/13 02:58:52;;;;;;;2.08;1.50;;;;;;;;;;5146248;27;20198;-69
2022/08/13 03:01:20;;;;;;;1.67;1.58;;;;;;;;;;5145860;27;20198;-69
2022/08/13 03:03:46;;;;;;;1.80;1.70;;;;;;;;;;5146141;27;20423;-69
2022/08/13 03:06:12;;;;;;;5.30;1.63;;;;;;;;;;5145432;27;20223;-69
2022/08/13 03:08:38;;;;;;;2.17;1.48;;;;;;;;;;5146116;27;20256;-69
2022/08/13 03:11:05;;;;;;;1.52;1.42;;;;;;;;;;5145916;27;20416;-69
2022/08/13 03:13:33;;;;;;;1.40;1.40;;;;;;;;;;5145917;27;20231;-69
2022/08/13 03:16:01;;;;;;;1.73;1.63;;;;;;;;;;5145616;27;20191;-69
2022/08/13 03:18:28;;;;;;;2.33;1.70;;;;;;;;;;5145713;27;20202;-69
2022/08/13 03:20:55;;;;;;;1.58;1.58;;;;;;;;;;5145446;27;20378;-69
2022/08/13 03:23:22;;;;;;;1.73;1.65;;;;;;;;;;5145846;27;20198;-69
2022/08/13 03:25:49;;;;;;;1.60;1.52;;;;;;;;;;5145648;27;20241;-69
2022/08/13 03:28:15;;;;;;;1.80;1.70;;;;;;;;;;5145403;27;20497;-69
2022/08/13 03:30:41;;;;;;;4.10;1.60;;;;;;;;;;5145566;27;20198;-69
2022/08/13 03:33:09;;;;;;;2.20;1.60;;;;;;;;;;5144651;27;20194;-69
2022/08/13 03:35:38;;;;;;;1.55;1.42;;;;;;;;;;5145335;27;20472;-69
2022/08/13 03:38:05;;;;;;;3.25;1.80;;;;;;;;;;5145426;27;20221;-69
2022/08/13 03:41:00;;;;;;;2.25;1.70;;;;;;;;;;5145248;27;20194;-69
2022/08/13 03:43:18;;;;;;;1.95;1.60;;;;;;;;;;5144983;27;20197;-69
2022/08/13 03:45:44;;;;;;;1.80;1.70;;;;;;;;;;5145072;27;20340;-69
2022/08/13 03:48:13;;;;;;;1.90;1.80;;;;;;;;;;5144820;27;20442;-69
2022/08/13 03:50:40;;;;;;;3.80;1.83;;;;;;;;;;5145119;27;20239;-69
2022/08/13 03:53:07;;;;;;;1.70;1.60;;;;;;;;;;5144928;27;20201;-69
2022/08/13 03:55:34;;;;;;;1.88;1.75;;;;;;;;;;5144985;27;20190;-69
2022/08/13 03:58:01;;;;;;;1.58;1.50;;;;;;;;;;5144673;27;20222;-69
2022/08/13 04:00:28;;;;;;;1.50;1.50;;;;;;;;;;5144704;27;20502;-69
2022/08/13 04:02:54;;;;;;;1.92;1.50;;;;;;;;;;5144952;27;20194;-69
2022/08/13 04:05:20;;;;;;;1.80;1.70;;;;;;;;;;5144922;27;20255;-69
2022/08/13 04:07:50;;;;;;;2.35;1.45;;;;;;;;;;5144401;27;20232;-69
2022/08/13 04:10:17;;;;;;;2.30;1.40;;;;;;;;;;5144621;27;20201;-69
2022/08/13 04:12:43;;;;;;;2.58;1.55;;;;;;;;;;5144553;27;20510;-69
2022/08/13 04:15:10;;;;;;;1.58;1.58;;;;;;;;;;5144382;27;20198;-69
2022/08/13 04:17:37;;;;;;;2.03;1.92;;;;;;;;;;5144386;27;20194;-69
2022/08/13 04:20:03;;;;;;;2.20;1.77;;;;;;;;;;5144685;27;20203;-69
2022/08/13 04:22:30;;;;;;;1.90;1.80;;;;;;;;;;5144514;27;20198;-69
2022/08/13 04:24:58;;;;;;;1.55;1.55;;;;;;;;;;5144305;27;20194;-69
2022/08/13 04:27:24;;;;;;;2.25;2.15;;;;;;;;;;5144043;27;20202;-69
2022/08/13 04:29:51;;;;;;;1.60;1.60;;;;;;;;;;5144645;27;20238;-69
2022/08/13 04:32:19;;;;;;;1.90;1.80;;;;;;;;;;5144566;27;20194;-69
2022/08/13 04:34:46;;;;;;;2.88;1.92;;;;;;;;;;5144346;27;20200;-69
2022/08/13 04:37:12;;;;;;;1.95;1.85;;;;;;;;;;5144035;27;20498;-69
2022/08/13 04:39:38;;;;;;;2.10;2.00;;;;;;;;;;5144155;27;20426;-69
2022/08/13 04:42:07;;;;;;;3.60;1.90;;;;;;;;;;5143916;27;20198;-69
2022/08/13 04:44:33;;;;;;;2.47;1.70;;;;;;;;;;5144302;27;20194;-69
2022/08/13 04:46:59;;;;;;;2.10;2.00;;;;;;;;;;5143505;27;20214;-69
2022/08/13 04:49:26;;;;;;;2.17;1.67;;;;;;;;;;5143868;27;20232;-69
2022/08/13 04:51:52;;;;;;;1.77;1.67;;;;;;;;;;5143986;27;20194;-69
2022/08/13 04:54:19;;;;;;;1.80;1.80;;;;;;;;;;5143692;27;20202;-69
2022/08/13 04:56:45;;;;;;;2.47;2.13;;;;;;;;;;5143687;27;20198;-69
2022/08/13 04:59:13;;;;;;;2.13;2.03;;;;;;;;;;5143673;27;20562;-69
2022/08/13 05:01:39;;;;;;;2.92;2.30;;;;;;;;;;5143856;27;20247;-69
2022/08/13 05:04:06;;;;;;;4.68;1.90;;;;;;;;;;5143916;27;20195;-69
2022/08/13 05:06:32;;;;;;;1.90;1.90;;;;;;;;;;5143185;27;20427;-69
2022/08/13 05:09:03;;;;;;;2.30;2.20;;;;;;;;;;5143606;27;20198;-69
2022/08/13 05:11:29;;;;;;;2.08;1.98;;;;;;;;;;5143629;27;20402;-69
2022/08/13 05:13:55;;;;;;;1.98;1.88;;;;;;;;;;5143738;27;20214;-69
2022/08/13 05:16:23;;;;;;;2.00;1.90;;;;;;;;;;5143551;27;20197;-69
2022/08/13 05:18:53;;;;;;;6.03;2.10;;;;;;;;;;5143543;27;20495;-69
2022/08/13 05:21:22;;;;;;;2.10;2.00;;;;;;;;;;5143460;27;20202;-69
2022/08/13 05:23:53;;;;;;;2.83;2.10;;;;;;;;;;5143393;27;20497;-69
2022/08/13 05:26:20;;;;;;;2.75;2.45;;;;;;;;;;5143318;27;20236;-69
2022/08/13 05:28:46;;;;;;;3.90;2.20;;;;;;;;;;5143584;28;20418;-69
2022/08/13 05:31:13;;;;;;;2.50;1.73;;;;;;;;;;5143590;27;20225;-69
2022/08/13 05:33:40;;;;;;;1.98;1.88;;;;;;;;;;5143438;28;20194;-69
2022/08/13 05:36:07;;;;;;;2.08;1.98;;;;;;;;;;5143376;28;20194;-69
2022/08/13 05:38:34;;;;;;;2.38;2.28;;;;;;;;;;5143581;28;20225;-69
2022/08/13 05:41:01;;;;;;;2.40;2.30;;;;;;;;;;5143541;28;20194;-69
2022/08/13 05:43:29;;;;;;;3.80;2.47;;;;;;;;;;5143388;28;20436;-69
2022/08/13 05:45:58;;;;;;;3.30;2.20;;;;;;;;;;5143005;27;20221;-69
2022/08/13 05:48:24;;;;;;;2.72;2.25;;;;;;;;;;5143234;27;20202;-69
2022/08/13 05:50:52;;;;;;;4.28;2.42;;;;;;;;;;5143060;27;20216;-69
2022/08/13 05:53:18;;;;;;;2.40;2.30;;;;;;;;;;5143158;28;20227;-69
2022/08/13 05:55:44;;;;;;;2.88;2.70;;;;;;;;;;5144921;27;20194;-69
2022/08/13 05:58:12;;;;;;;3.05;2.90;;;;;;;;;;5146926;27;20239;-69
2022/08/13 06:03:26;;;;;;;3.50;2.92;;;;;;;;;;5147114;27;20231;-69
2022/08/13 06:05:55;;;;;;;2.97;2.63;;;;;;;;;;5147006;27;20232;-69
2022/08/13 06:08:24;;;;;;;5.68;2.78;;;;;;;;;;5146889;27;20194;-70
2022/08/13 06:10:50;;;;;;;3.20;3.00;;;;;;;;;;5149713;27;20194;-69
2022/08/13 06:13:16;;;;;;;3.38;3.08;;;;;;;;;;5148043;27;20502;-69
2022/08/13 06:15:43;;;;;;;2.70;2.50;;;;;;;;;;5146870;27;20191;-70
2022/08/13 06:18:10;;;;;;;2.33;2.22;;;;;;;;;;5146529;27;20233;-70
2022/08/13 06:20:37;;;;;;;3.55;2.80;;;;;;;;;;5146916;27;20523;-69
2022/08/13 06:23:05;;;;;;;4.25;2.83;;;;;;;;;;5146563;27;20265;-69
2022/08/13 06:25:32;;;;;;;3.40;2.67;;;;;;;;;;5146801;27;20202;-69
2022/08/13 06:28:00;;;;;;;5.32;2.58;;;;;;;;;;5146481;27;20194;-69
2022/08/13 06:30:30;;;;;;;2.97;2.58;;;;;;;;;;5146563;27;20194;-69
2022/08/13 06:33:01;;;;;;;4.47;3.00;;;;;;;;;;5146442;27;20261;-69
2022/08/13 06:35:28;;;;;;;4.60;2.70;;;;;;;;;;5146612;27;20522;-69
2022/08/13 06:37:54;;;;;;;2.40;2.30;;;;;;;;;;5146381;27;20194;-69
2022/08/13 06:40:23;;;;;;;3.45;2.45;;;;;;;;;;5146463;27;20204;-69
2022/08/13 06:42:51;;;;;;;2.50;2.40;;;;;;;;;;5146205;27;20194;-69
2022/08/13 06:45:19;;;;;;;6.03;2.65;;;;;;;;;;5146650;27;20400;-69
2022/08/13 06:47:46;;;;;;;3.97;2.60;;;;;;;;;;5146145;27;20565;-69
2022/08/13 06:50:12;;;;;;;2.28;2.15;;;;;;;;;;5146403;27;20206;-69
2022/08/13 06:52:38;;;;;;;4.45;2.53;;;;;;;;;;5146138;27;20371;-70
2022/08/13 06:55:07;;;;;;;2.08;1.98;;;;;;;;;;5145941;27;20206;-70
2022/08/13 06:57:36;;;;;;;7.03;2.20;;;;;;;;;;5145690;27;20190;-69
2022/08/13 07:00:04;;;;;;;2.45;2.30;;;;;;;;;;5145918;27;20199;-69
2022/08/13 07:02:32;;;;;;;3.40;2.55;;;;;;;;;;5146133;27;20194;-69
2022/08/13 07:04:58;;;;;;;4.00;2.58;;;;;;;;;;5145891;27;20405;-70
2022/08/13 07:07:25;;;;;;;1.70;1.60;;;;;;;;;;5144253;27;20263;-70
2022/08/13 07:09:52;;;;;;;1.80;1.77;;;;;;;;;;5145760;27;20265;-70
2022/08/13 07:12:18;;;;;;;1.55;1.45;;;;;;;;;;5146270;27;20494;-70
2022/08/13 07:14:46;;;;;;;1.38;1.30;;;;;;;;;;5145832;27;20194;-70
2022/08/13 07:17:12;;;;;;;1.20;1.20;;;;;;;;;;5145545;27;20555;-70
2022/08/13 07:19:38;;;;;;;1.30;1.30;;;;;;;;;;5145598;27;20199;-70
2022/08/13 07:22:05;;;;;;;2.60;1.27;;;;;;;;;;5145099;27;20198;-70
2022/08/13 07:24:31;;;;;;;1.60;1.50;;;;;;;;;;5145005;27;20232;-70
2022/08/13 07:26:59;;;;;;;1.38;1.38;;;;;;;;;;5144959;27;20219;-69
2022/08/13 07:29:27;;;;;;;2.28;1.33;;;;;;;;;;5145474;27;20195;-70
2022/08/13 07:31:55;;;;;;;2.20;2.10;;;;;;;;;;5145264;27;20195;-70
2022/08/13 07:34:21;;;;;;;1.30;1.30;;;;;;;;;;5145449;27;20201;-70
2022/08/13 07:36:49;;;;;;;1.60;1.60;;;;;;;;;;5145098;27;20222;-70
2022/08/13 07:39:16;;;;;;;1.58;1.48;;;;;;;;;;5145323;27;20265;-70
2022/08/13 07:41:45;;;;;;;1.83;1.42;;;;;;;;;;5145451;27;20201;-70
2022/08/13 07:44:12;;;;;;;1.40;1.40;;;;;;;;;;5145329;27;20209;-70
2022/08/13 07:46:42;;;;;;;1.85;1.35;;;;;;;;;;5144749;27;20238;-70
2022/08/13 07:49:10;;;;;;;2.80;1.40;;;;;;;;;;5145093;27;20203;-70
2022/08/13 07:51:37;;;;;;;2.42;1.45;;;;;;;;;;5144992;27;20270;-70
2022/08/13 07:54:06;;;;;;;1.90;1.85;;;;;;;;;;5145031;27;20514;-70
2022/08/13 07:56:32;;;;;;;1.85;1.33;;;;;;;;;;5144847;27;20509;-70
2022/08/13 07:59:00;;;;;;;4.50;1.63;;;;;;;;;;5031734;27;20213;-70
2022/08/13 08:01:27;;;;;;;1.30;1.30;;;;;;;;;;5026492;28;20529;-70
2022/08/13 08:03:54;;;;;;;5.13;1.70;;;;;;;;;;5076973;27;20255;-69
2022/08/13 08:06:22;;;;;;;1.48;1.38;;;;;;;;;;5138375;27;20230;-70
2022/08/13 08:08:53;;;;;;;4.50;1.38;;;;;;;;;;5138849;27;20210;-70
2022/08/13 08:14:01;;;;;;;1.60;1.50;;;;;;;;;;5138543;27;20206;-70
2022/08/13 08:16:29;;;;;;;3.40;1.50;;;;;;;;;;5078757;27;20403;-70
2022/08/13 08:18:55;;;;;;;1.33;1.33;;;;;;;;;;5033617;28;20218;-70
2022/08/13 08:21:24;;;;;;;4.00;1.50;;;;;;;;;;5034479;28;20217;-70
2022/08/13 08:23:51;;;;;;;1.65;1.60;;;;;;;;;;5034548;28;20264;-70
2022/08/13 08:26:18;;;;;;;1.42;1.20;;;;;;;;;;5034269;28;20209;-71
2022/08/13 08:28:46;;;;;;;1.20;1.20;;;;;;;;;;5034468;28;20262;-70
2022/08/13 08:31:12;;;;;;;2.45;1.60;;;;;;;;;;5034559;28;20300;-70
2022/08/13 08:33:41;;;;;;;1.67;1.40;;;;;;;;;;5034326;28;20266;-68
2022/08/13 08:36:08;;;;;;;1.38;1.38;;;;;;;;;;5034223;28;20206;-71
2022/08/13 08:44:24;;;;;;;1.10;1.08;;;;;;;;;;5034142;28;20207;-70
2022/08/13 08:46:51;;;;;;;1.17;1.13;;;;;;;;;;5034016;28;20282;-68
2022/08/13 08:49:20;;;;;;;2.10;1.23;;;;;;;;;;5097859;27;20210;-69
2022/08/13 08:51:46;;;;;;;2.15;1.00;;;;;;;;;;5130825;27;20213;-70
2022/08/13 08:54:14;;;;;;;1.85;1.10;;;;;;;;;;5034108;28;20472;-70
2022/08/13 08:56:41;;;;;;;1.60;1.50;;;;;;;;;;5032666;28;20213;-69
2022/08/13 08:59:09;;;;;;;1.27;1.27;;;;;;;;;;5033943;28;20200;-69
2022/08/13 09:01:35;;;;;;;1.85;1.10;;;;;;;;;;5034424;28;20613;-69
2022/08/13 09:04:04;;;;;;;2.17;1.50;;;;;;;;;;5033854;28;20285;-69
2022/08/13 09:06:31;;;;;;;3.17;1.73;;;;;;;;;;5033700;28;20287;-69
2022/08/13 09:08:58;;;;;;;1.35;1.35;;;;;;;;;;5033463;28;20205;-69
2022/08/13 09:11:28;;;;;;;1.25;1.13;;;;;;;;;;5033440;28;20209;-69
2022/08/13 09:13:55;;;;;;;2.38;1.30;;;;;;;;;;5033752;28;20419;-69
2022/08/13 09:16:21;;;;;;;2.25;1.80;;;;;;;;;;5033251;28;20209;-69
2022/08/13 09:18:49;;;;;;;4.05;1.40;;;;;;;;;;5033349;28;20580;-71
2022/08/13 09:21:17;;;;;;;4.57;2.92;;;;;;;;;;5033112;28;20247;-70
2022/08/13 09:23:47;;;;;;;1.40;1.40;;;;;;;;;;5033634;28;20209;-70
2022/08/13 09:26:13;;;;;;;1.10;1.10;;;;;;;;;;5033308;28;20216;-69
2022/08/13 09:28:42;;;;;;;2.00;1.33;;;;;;;;;;5033546;28;20225;-69
2022/08/13 09:31:10;;;;;;;4.78;1.15;;;;;;;;;;5032289;28;20439;-69
2022/08/13 09:33:38;;;;;;;1.20;1.20;;;;;;;;;;5033357;28;20210;-70
2022/08/13 09:36:06;;;;;;;3.03;1.20;;;;;;;;;;5033604;28;20247;-70
2022/08/13 09:38:32;;;;;;;2.50;1.20;;;;;;;;;;5033655;28;20462;-71
2022/08/13 09:41:02;;;;;;;3.17;1.20;;;;;;;;;;5033773;28;20223;-70
2022/08/13 09:43:36;;;;;;;3.45;1.20;;;;;;;;;;5113347;28;20202;-70
2022/08/13 09:46:04;;;;;;;1.10;1.10;;;;;;;;;;5055631;28;20217;-70
2022/08/13 09:48:31;;;;;;;1.30;1.20;;;;;;;;;;5033473;28;20250;-70
2022/08/13 09:50:57;;;;;;;2.70;1.38;;;;;;;;;;5033709;28;20798;-70
2022/08/13 09:53:25;;;;;;;1.42;1.15;;;;;;;;;;5033343;28;20262;-69
2022/08/13 09:55:52;;;;;;;4.15;1.20;;;;;;;;;;5033383;28;20612;-70
2022/08/13 09:58:18;;;;;;;4.00;1.27;;;;;;;;;;5032945;28;20473;-69
2022/08/13 10:00:46;;;;;;;2.53;1.33;;;;;;;;;;5088567;28;20202;-71
2022/08/13 10:03:14;;;;;;;2.42;1.40;;;;;;;;;;5027462;28;20216;-71
2022/08/13 10:05:40;;;;;;;3.80;1.48;;;;;;;;;;5026297;28;20221;-70
2022/08/13 10:08:07;;;;;;;1.40;1.30;;;;;;;;;;5018962;28;20226;-70
2022/08/13 10:10:34;;;;;;;1.40;1.20;;;;;;;;;;5019377;28;20199;-70
2022/08/13 10:13:01;;;;;;;1.15;1.05;;;;;;;;;;5036112;28;20222;-70
2022/08/13 10:15:28;;;;;;;1.20;1.20;;;;;;;;;;5039144;28;20379;-70
2022/08/13 10:17:55;;;;;;;1.05;1.05;;;;;;;;;;5038688;28;20193;-70
2022/08/13 10:20:25;;;;;;;1.02;1.02;;;;;;;;;;5038862;28;20622;-70
2022/08/13 10:22:53;;;;;;;1.48;1.40;;;;;;;;;;5038827;28;20198;-70
2022/08/13 10:25:19;;;;;;;3.13;1.13;;;;;;;;;;5038815;28;20205;-70
2022/08/13 10:27:46;;;;;;;1.05;1.05;;;;;;;;;;5038337;28;20405;-70
2022/08/13 10:30:13;;;;;;;1.00;1.00;;;;;;;;;;5033795;28;20197;-71
2022/08/13 10:32:40;;;;;;;1.40;1.30;;;;;;;;;;5029656;28;20424;-70
2022/08/13 10:35:08;;;;;;;2.05;1.10;;;;;;;;;;5027962;28;20198;-71
2022/08/13 10:37:42;;;;;;;1.58;1.48;;;;;;;;;;5020248;28;20275;-71
2022/08/13 10:40:09;;;;;;;2.05;1.00;;;;;;;;;;5038377;28;20232;-69
2022/08/13 10:42:36;;;;;;;2.25;1.00;;;;;;;;;;5030866;28;20205;-69
2022/08/13 10:45:03;;;;;;;1.13;1.13;;;;;;;;;;5038585;28;20497;-69
2022/08/13 10:47:29;;;;;;;0.90;0.90;;;;;;;;;;5041764;28;20254;-70
2022/08/13 10:49:55;;;;;;;2.75;1.08;;;;;;;;;;5041624;28;20243;-70
2022/08/13 10:52:24;;;;;;;1.63;0.90;;;;;;;;;;5041661;28;20197;-70
2022/08/13 10:54:52;;;;;;;2.03;0.82;;;;;;;;;;5041522;28;20205;-70
2022/08/13 10:57:18;;;;;;;1.17;0.90;;;;;;;;;;5041591;28;20254;-70
2022/08/13 10:59:45;;;;;;;2.70;1.05;;;;;;;;;;5041771;28;20417;-70
2022/08/13 11:02:12;;;;;;;1.00;1.00;;;;;;;;;;5041635;28;20201;-70
2022/08/13 11:04:38;;;;;;;1.30;1.17;;;;;;;;;;5041504;28;20198;-70
2022/08/13 11:07:10;;;;;;;1.02;0.93;;;;;;;;;;5041211;28;20209;-70
2022/08/13 11:09:37;;;;;;;1.17;1.13;;;;;;;;;;5041335;28;20240;-70
2022/08/13 11:12:07;;;;;;;1.10;1.10;;;;;;;;;;5041580;28;20220;-70
2022/08/13 11:14:33;;;;;;;1.08;1.05;;;;;;;;;;5041345;28;20501;-70
2022/08/13 11:16:59;;;;;;;2.67;1.30;;;;;;;;;;5041173;28;20366;-70
2022/08/13 11:19:28;;;;;;;1.30;1.25;;;;;;;;;;5041346;28;20418;-70
2022/08/13 11:21:55;;;;;;;1.30;1.20;;;;;;;;;;5041157;28;20434;-70
2022/08/13 11:24:21;;;;;;;2.05;1.10;;;;;;;;;;5041201;28;20197;-70
2022/08/13 11:26:48;;;;;;;6.70;1.50;;;;;;;;;;5040844;28;20243;-71
2022/08/13 11:29:15;;;;;;;1.65;1.40;;;;;;;;;;5041097;28;20222;-70
2022/08/13 11:31:42;;;;;;;1.75;1.00;;;;;;;;;;5041114;28;20262;-71
2022/08/13 11:34:08;;;;;;;2.38;1.08;;;;;;;;;;5040903;28;20258;-70
2022/08/13 11:36:34;;;;;;;4.68;1.20;;;;;;;;;;5040663;28;20197;-70
2022/08/13 11:39:00;;;;;;;2.25;1.00;;;;;;;;;;5041129;28;20521;-70
2022/08/13 11:41:27;;;;;;;0.90;0.90;;;;;;;;;;5041120;28;20505;-70
2022/08/13 11:43:53;;;;;;;2.40;1.23;;;;;;;;;;5040652;28;20197;-70
2022/08/13 11:46:22;;;;;;;1.20;1.20;;;;;;;;;;5040725;28;20202;-70
2022/08/13 11:48:48;;;;;;;1.15;1.15;;;;;;;;;;5040741;28;20217;-70
2022/08/13 11:51:14;;;;;;;1.17;1.10;;;;;;;;;;5040714;28;20201;-70
2022/08/13 11:53:41;;;;;;;0.93;0.93;;;;;;;;;;5039785;28;20213;-70
2022/08/13 11:56:07;;;;;;;2.30;1.25;;;;;;;;;;5040703;28;20520;-70
2022/08/13 11:58:34;;;;;;;1.40;1.30;;;;;;;;;;5040604;28;20209;-70
2022/08/13 12:01:03;;;;;;;2.42;1.10;;;;;;;;;;5040644;28;20234;-70
2022/08/13 12:03:31;;;;;;;1.00;0.90;;;;;;;;;;5040608;28;20197;-70
2022/08/13 12:05:57;;;;;;;1.40;1.10;;;;;;;;;;5040374;28;20286;-70
2022/08/13 12:08:25;;;;;;;2.47;1.00;;;;;;;;;;5040642;28;20218;-70
2022/08/13 12:10:51;;;;;;;1.75;1.05;;;;;;;;;;5040459;28;20333;-70
2022/08/13 12:13:18;;;;;;;1.17;1.17;;;;;;;;;;5040447;28;20197;-70
2022/08/13 12:15:44;;;;;;;1.30;1.23;;;;;;;;;;5040444;28;20198;-70
2022/08/13 12:18:11;;;;;;;1.85;1.20;;;;;;;;;;5039928;28;20194;-70
2022/08/13 12:20:39;;;;;;;1.33;1.23;;;;;;;;;;5040297;28;20205;-71
2022/08/13 12:23:07;;;;;;;1.30;1.10;;;;;;;;;;5040275;28;20556;-70
2022/08/13 12:25:33;;;;;;;4.53;1.15;;;;;;;;;;5040229;28;20200;-70
2022/08/13 12:28:10;;;;;;;0.95;0.95;;;;;;;;;;5039986;28;20217;-70
2022/08/13 12:30:36;;;;;;;0.95;0.95;;;;;;;;;;5040551;28;20373;-70
2022/08/13 12:33:02;;;;;;;1.48;1.08;;;;;;;;;;5040041;28;20205;-70
2022/08/13 12:35:28;;;;;;;1.88;1.10;;;;;;;;;;5040185;28;20250;-70
2022/08/13 12:37:56;;;;;;;3.42;0.80;;;;;;;;;;5039871;28;20197;-71
2022/08/13 12:40:22;;;;;;;1.00;1.00;;;;;;;;;;5040197;28;20465;-70
2022/08/13 12:42:49;;;;;;;3.05;1.00;;;;;;;;;;5040010;28;20442;-70
2022/08/13 12:45:16;;;;;;;1.30;1.23;;;;;;;;;;5039801;28;20249;-70
2022/08/13 12:47:44;;;;;;;5.25;1.80;;;;;;;;;;5039690;28;20221;-70
2022/08/13 12:50:10;;;;;;;1.20;1.10;;;;;;;;;;5039822;28;20212;-70
2022/08/13 12:52:37;;;;;;;1.00;1.00;;;;;;;;;;5039825;28;20344;-70
2022/08/13 12:55:05;;;;;;;1.20;1.10;;;;;;;;;;5040028;28;20569;-70
2022/08/13 12:57:31;;;;;;;2.97;1.00;;;;;;;;;;5039337;28;20197;-70
2022/08/13 12:59:58;;;;;;;2.22;1.00;;;;;;;;;;5039636;28;20378;-70
2022/08/13 13:02:24;;;;;;;1.00;1.00;;;;;;;;;;5039540;28;20197;-70
2022/08/13 13:04:50;;;;;;;1.95;0.90;;;;;;;;;;5038459;28;20240;-70
2022/08/13 13:07:17;;;;;;;1.15;0.98;;;;;;;;;;5039694;28;20242;-70
2022/08/13 13:09:43;;;;;;;0.77;0.77;;;;;;;;;;5039546;28;20214;-70
2022/08/13 13:12:11;;;;;;;3.30;0.98;;;;;;;;;;5039374;28;20201;-70
2022/08/13 13:14:37;;;;;;;3.60;0.88;;;;;;;;;;5039227;28;20242;-70
2022/08/13 13:17:03;;;;;;;1.70;1.00;;;;;;;;;;5039370;28;20197;-71
2022/08/13 13:19:30;;;;;;;0.85;0.82;;;;;;;;;;5039514;28;20290;-71
2022/08/13 13:21:56;;;;;;;2.40;0.80;;;;;;;;;;5039274;28;20242;-70
2022/08/13 13:24:23;;;;;;;1.08;0.73;;;;;;;;;;5039364;28;20198;-70
2022/08/13 13:26:50;;;;;;;1.98;0.80;;;;;;;;;;5039148;28;20477;-70
2022/08/13 13:29:17;;;;;;;0.80;0.80;;;;;;;;;;5039224;28;20213;-70
2022/08/13 13:31:44;;;;;;;1.95;0.90;;;;;;;;;;5039626;28;20223;-71
2022/08/13 13:34:10;;;;;;;3.80;1.30;;;;;;;;;;5039316;28;20201;-70
2022/08/13 13:36:36;;;;;;;1.55;1.00;;;;;;;;;;5039092;28;20505;-71
2022/08/13 13:39:03;;;;;;;2.20;0.88;;;;;;;;;;5039191;28;20601;-71
2022/08/13 13:41:29;;;;;;;0.70;0.70;;;;;;;;;;5039186;28;20408;-70
2022/08/13 13:43:55;;;;;;;1.38;0.90;;;;;;;;;;5039135;28;20201;-71
2022/08/13 13:46:23;;;;;;;1.00;0.95;;;;;;;;;;5039041;28;20201;-70
2022/08/13 13:48:49;;;;;;;6.55;0.90;;;;;;;;;;5038992;28;20217;-70
2022/08/13 13:51:15;;;;;;;0.73;0.60;;;;;;;;;;5039226;28;20198;-70
2022/08/13 13:53:43;;;;;;;1.55;0.68;;;;;;;;;;5039064;28;20206;-71
2022/08/13 13:56:10;;;;;;;1.35;0.77;;;;;;;;;;5038854;28;20212;-71
2022/08/13 13:58:36;;;;;;;3.70;1.00;;;;;;;;;;5038876;28;20202;-70
2022/08/13 14:01:03;;;;;;;1.65;0.77;;;;;;;;;;5039114;28;20450;-70
2022/08/13 14:03:31;;;;;;;2.17;0.70;;;;;;;;;;5039139;28;20234;-71
2022/08/13 14:05:57;;;;;;;1.40;0.80;;;;;;;;;;5038681;28;20270;-71
2022/08/13 14:08:24;;;;;;;1.65;0.80;;;;;;;;;;5038792;28;20262;-71
2022/08/13 14:10:52;;;;;;;0.75;0.65;;;;;;;;;;5038595;28;20220;-71
2022/08/13 14:13:19;;;;;;;0.95;0.90;;;;;;;;;;5038889;28;20205;-71
2022/08/13 14:15:46;;;;;;;1.17;0.70;;;;;;;;;;5039064;28;20498;-70
2022/08/13 14:18:15;;;;;;;0.93;0.93;;;;;;;;;;5042013;28;20553;-70
2022/08/13 14:20:43;;;;;;;0.80;0.80;;;;;;;;;;5042104;28;20198;-71
2022/08/13 14:23:10;;;;;;;1.48;0.70;;;;;;;;;;5042074;28;20204;-71
2022/08/13 14:25:37;;;;;;;3.20;0.90;;;;;;;;;;5042192;28;20198;-71
2022/08/13 14:28:03;;;;;;;0.80;0.80;;;;;;;;;;5041788;28;20242;-71
2022/08/13 14:30:29;;;;;;;1.38;0.82;;;;;;;;;;5042189;28;20197;-71
2022/08/13 14:32:56;;;;;;;0.63;0.63;;;;;;;;;;5042142;28;20201;-71
2022/08/13 14:35:22;;;;;;;1.00;0.90;;;;;;;;;;5041982;28;20221;-71
2022/08/13 14:37:50;;;;;;;0.80;0.80;;;;;;;;;;5041636;28;20242;-71
2022/08/13 14:40:17;;;;;;;0.52;0.52;;;;;;;;;;5041995;28;20246;-70
2022/08/13 14:42:45;;;;;;;1.42;0.60;;;;;;;;;;5042101;28;20201;-70
2022/08/13 14:47:57;;;;;;;2.63;0.73;;;;;;;;;;5041399;28;20200;-71
2022/08/13 14:50:25;;;;;;;2.92;0.73;;;;;;;;;;5041753;28;20235;-71
2022/08/13 14:52:52;;;;;;;5.32;0.90;;;;;;;;;;5041966;28;20202;-71
2022/08/13 14:55:21;;;;;;;2.05;0.77;;;;;;;;;;5041647;28;20282;-71
2022/08/13 14:57:48;;;;;;;0.80;0.80;;;;;;;;;;5041481;28;20418;-70
2022/08/13 15:00:15;;;;;;;5.45;1.08;;;;;;;;;;5041585;28;20516;-71
2022/08/13 15:02:42;;;;;;;0.77;0.77;;;;;;;;;;5041477;28;20236;-71
2022/08/13 15:05:09;;;;;;;3.13;0.70;;;;;;;;;;5041942;28;20225;-70